Tougaloo, Mississippi
Current Conditions -  °F | °C
As of 9:53 PM on Saturday 25 Oct 2014 (Local Time) from KHKS Reporting Station
Clear Clear  
Wind Chill: 65°   Ceiling: Unl
Heat Index: 65°   Visibility: 10mi
Dew Point: 60°   Wind: 0mph
Humidity: 84%   Direction: NA
Pressure: 30.09"   Gusts: NA
Location:  32.4°N, 90.16°W
Report Text: KHKS 260253Z 00000KT 10SM CLR 18/16 A3009 RMK AO2 SLP182 T01830156 51005
Loading
Personal Weather Stations






























Interactive Weather Map
Tropical Storm Tracking
New forecast layout! Learn more

10-Day Weather Forecast

Advertisements
Track Severe Weather on mobile